createdAt,value
2023-01-23T00:02:01.328Z,-2.83
2023-01-23T00:04:29.453Z,-2.81
2023-01-23T00:06:57.446Z,-2.85
2023-01-23T00:09:25.432Z,-2.86
2023-01-23T00:11:53.490Z,-2.86
2023-01-23T00:14:21.455Z,-2.87
2023-01-23T00:16:50.807Z,-2.90
2023-01-23T00:19:19.182Z,-2.93
2023-01-23T00:21:47.210Z,-2.96
2023-01-23T00:24:15.409Z,-2.99
2023-01-23T00:26:43.507Z,-3.00
2023-01-23T00:29:11.671Z,-3.00
2023-01-23T00:31:40.252Z,-3.03
2023-01-23T00:34:14.242Z,-3.06
2023-01-23T00:36:44.879Z,-3.06
2023-01-23T00:39:17.450Z,-3.12
2023-01-23T00:41:46.536Z,-3.13
2023-01-23T00:44:15.399Z,-3.13
2023-01-23T00:46:43.598Z,-3.14
2023-01-23T00:49:13.271Z,-3.17
2023-01-23T00:51:41.672Z,-3.19
2023-01-23T00:54:09.654Z,-3.19
2023-01-23T00:56:37.686Z,-3.24
2023-01-23T00:59:06.296Z,-3.23
2023-01-23T01:01:36.259Z,-3.25
2023-01-23T01:04:04.598Z,-3.26
2023-01-23T01:06:34.962Z,-3.27
2023-01-23T01:09:03.524Z,-3.29
2023-01-23T01:11:31.984Z,-3.28
2023-01-23T01:14:01.424Z,-3.28
2023-01-23T01:16:29.641Z,-3.28
2023-01-23T01:18:59.579Z,-3.30
2023-01-23T01:21:27.649Z,-3.30
2023-01-23T01:23:57.262Z,-3.32
2023-01-23T01:26:28.457Z,-3.31
2023-01-23T01:28:56.508Z,-3.21
2023-01-23T01:31:24.972Z,-3.18
2023-01-23T01:33:53.035Z,-3.19
2023-01-23T01:36:23.102Z,-3.22
2023-01-23T01:38:51.127Z,-3.20
2023-01-23T01:41:20.542Z,-3.20
2023-01-23T01:43:48.571Z,-3.20
2023-01-23T01:46:22.673Z,-3.23
2023-01-23T01:49:03.263Z,-3.23
2023-01-23T01:51:35.734Z,-3.21
2023-01-23T01:54:08.969Z,-3.22
2023-01-23T01:56:42.531Z,-3.24
2023-01-23T01:59:12.438Z,-3.29
2023-01-23T02:01:42.710Z,-3.32
2023-01-23T02:04:11.176Z,-3.29
2023-01-23T02:06:39.383Z,-3.34
2023-01-23T02:09:12.116Z,-3.36
2023-01-23T02:11:41.603Z,-3.36
2023-01-23T02:14:10.351Z,-3.37
2023-01-23T02:16:43.770Z,-3.37
2023-01-23T02:19:25.597Z,-3.40
2023-01-23T02:22:00.053Z,-3.42
2023-01-23T02:25:42.688Z,-3.43
2023-01-23T02:28:14.993Z,-3.46
2023-01-23T02:30:46.903Z,-3.46
2023-01-23T02:38:07.499Z,-3.50
2023-01-23T02:40:38.823Z,-3.49
2023-01-23T02:43:15.593Z,-3.50
2023-01-23T02:45:50.165Z,-3.52
2023-01-23T02:48:18.330Z,-3.52
2023-01-23T02:50:46.514Z,-3.53
2023-01-23T02:53:14.951Z,-3.52
2023-01-23T02:55:43.436Z,-3.55
2023-01-23T02:58:30.995Z,-3.56
2023-01-23T03:00:59.115Z,-3.55
2023-01-23T03:03:29.090Z,-3.59
2023-01-23T03:05:57.947Z,-3.60
2023-01-23T03:08:33.527Z,-3.60
2023-01-23T03:11:02.468Z,-3.59
2023-01-23T03:13:32.957Z,-3.59
2023-01-23T03:16:01.134Z,-3.58
2023-01-23T03:18:37.949Z,-3.59
2023-01-23T03:21:13.921Z,-3.58
2023-01-23T03:23:44.739Z,-3.61
2023-01-23T03:26:12.736Z,-3.63
2023-01-23T03:29:00.282Z,-3.63
2023-01-23T03:31:29.105Z,-3.66
2023-01-23T03:33:57.312Z,-3.67
2023-01-23T03:36:25.649Z,-3.68
2023-01-23T03:39:10.538Z,-3.71
2023-01-23T03:41:41.960Z,-3.71
2023-01-23T03:44:11.481Z,-3.69
2023-01-23T03:46:39.590Z,-3.69
2023-01-23T03:49:07.770Z,-3.74
2023-01-23T03:51:35.829Z,-3.74
2023-01-23T03:54:03.839Z,-3.77
2023-01-23T03:56:32.160Z,-3.81
2023-01-23T03:59:00.136Z,-3.81
2023-01-23T04:01:30.132Z,-3.82
2023-01-23T04:03:58.408Z,-3.85
2023-01-23T04:06:26.597Z,-3.86
2023-01-23T04:08:54.721Z,-3.87
2023-01-23T04:11:22.912Z,-3.85
2023-01-23T04:13:51.341Z,-3.88
2023-01-23T04:16:19.711Z,-3.89
2023-01-23T04:18:49.157Z,-3.88
2023-01-23T04:21:17.401Z,-3.88
2023-01-23T04:23:45.798Z,-3.89
2023-01-23T04:26:14.740Z,-3.85
2023-01-23T04:28:42.878Z,-3.88
2023-01-23T04:31:12.258Z,-3.88
2023-01-23T04:33:40.757Z,-3.90
2023-01-23T04:36:12.566Z,-3.88
2023-01-23T04:38:40.748Z,-3.84
2023-01-23T04:41:20.937Z,-3.85
2023-01-23T04:43:49.029Z,-3.83
2023-01-23T04:46:17.160Z,-3.80
2023-01-23T04:48:48.909Z,-3.83
2023-01-23T04:51:18.777Z,-3.78
2023-01-23T04:53:47.022Z,-3.76
2023-01-23T04:56:15.079Z,-3.80
2023-01-23T04:58:43.163Z,-3.84
2023-01-23T05:01:15.682Z,-3.88
2023-01-23T05:03:43.822Z,-3.86
2023-01-23T05:06:11.893Z,-3.90
2023-01-23T05:09:06.799Z,-3.89
2023-01-23T05:11:40.966Z,-3.91
2023-01-23T05:14:11.081Z,-3.93
2023-01-23T05:16:39.300Z,-3.92
2023-01-23T05:19:32.270Z,-3.92
2023-01-23T05:22:02.891Z,-3.97
2023-01-23T05:24:36.928Z,-3.99
2023-01-23T05:27:06.130Z,-4.02
2023-01-23T05:29:38.449Z,-4.00
2023-01-23T05:32:15.157Z,-4.02
2023-01-23T05:35:03.468Z,-4.04
2023-01-23T05:37:32.296Z,-4.04
2023-01-23T05:40:08.963Z,-4.06
2023-01-23T05:42:56.965Z,-4.07
2023-01-23T05:45:45.257Z,-4.08
2023-01-23T05:48:23.414Z,-4.11
2023-01-23T05:50:51.447Z,-4.12
2023-01-23T05:53:21.659Z,-4.17
2023-01-23T05:55:51.298Z,-4.16
2023-01-23T05:58:20.607Z,-4.18
2023-01-23T06:01:03.599Z,-4.18
2023-01-23T06:03:50.248Z,-4.20
2023-01-23T06:06:47.556Z,-4.24
2023-01-23T06:09:15.678Z,-4.24
2023-01-23T06:11:45.121Z,-4.28
2023-01-23T06:14:13.262Z,-4.30
2023-01-23T06:16:41.337Z,-4.30
2023-01-23T06:19:10.161Z,-4.32
2023-01-23T06:21:38.527Z,-4.34
2023-01-23T06:24:07.437Z,-4.32
2023-01-23T06:26:35.440Z,-4.35
2023-01-23T06:29:05.396Z,-4.36
2023-01-23T06:31:33.980Z,-4.38
2023-01-23T06:34:03.886Z,-4.39
2023-01-23T06:36:38.358Z,-4.39
2023-01-23T06:39:06.567Z,-4.38
2023-01-23T06:41:40.811Z,-4.42
2023-01-23T06:44:11.541Z,-4.44
2023-01-23T06:46:39.876Z,-4.44
2023-01-23T06:49:08.240Z,-4.41
2023-01-23T06:51:38.476Z,-4.44
2023-01-23T06:54:10.058Z,-4.43
2023-01-23T06:56:39.664Z,-4.43
2023-01-23T06:59:11.304Z,-4.43
2023-01-23T07:01:39.586Z,-4.44
2023-01-23T07:04:18.536Z,-4.39
2023-01-23T07:06:48.881Z,-4.42
2023-01-23T07:09:18.722Z,-4.40
2023-01-23T07:11:54.069Z,-4.40
2023-01-23T07:14:23.955Z,-4.43
2023-01-23T07:16:55.171Z,-4.45
2023-01-23T07:19:23.363Z,-4.44
2023-01-23T07:21:51.891Z,-4.47
2023-01-23T07:24:19.967Z,-4.47
2023-01-23T07:26:48.081Z,-4.49
2023-01-23T07:29:16.287Z,-4.50
2023-01-23T07:31:45.877Z,-4.49
2023-01-23T07:34:13.933Z,-4.50
2023-01-23T07:36:42.776Z,-4.49
2023-01-23T07:39:11.191Z,-4.51
2023-01-23T07:41:41.482Z,-4.49
2023-01-23T07:44:17.790Z,-4.46
2023-01-23T07:46:48.418Z,-4.43
2023-01-23T07:49:16.786Z,-4.38
2023-01-23T07:51:44.945Z,-4.41
2023-01-23T07:54:13.012Z,-4.41
2023-01-23T07:56:41.060Z,-4.40
2023-01-23T07:59:09.131Z,-4.39
2023-01-23T08:01:37.202Z,-4.41
2023-01-23T08:04:09.339Z,-4.40
2023-01-23T08:06:38.303Z,-4.39
2023-01-23T08:09:06.454Z,-4.37
2023-01-23T08:11:34.586Z,-4.39
2023-01-23T08:14:02.958Z,-4.38
2023-01-23T08:16:31.099Z,-4.34
2023-01-23T08:18:59.436Z,-4.31
2023-01-23T08:21:28.998Z,-4.36
2023-01-23T08:23:57.084Z,-4.33
2023-01-23T08:26:25.100Z,-4.30
2023-01-23T08:28:53.128Z,-4.26
2023-01-23T08:31:21.387Z,-4.24
2023-01-23T08:33:49.631Z,-4.18
2023-01-23T08:36:19.950Z,-4.11
2023-01-23T08:38:49.797Z,-4.07
2023-01-23T08:41:19.028Z,-4.05
2023-01-23T08:43:48.134Z,-3.97
2023-01-23T08:46:17.648Z,-3.93
2023-01-23T08:48:45.958Z,-3.90
2023-01-23T08:51:15.210Z,-3.83
2023-01-23T08:53:43.404Z,-3.78
2023-01-23T08:56:17.023Z,-3.72
2023-01-23T08:58:45.790Z,-3.66
2023-01-23T09:01:14.427Z,-3.62
2023-01-23T09:03:42.577Z,-3.55
2023-01-23T09:06:10.614Z,-3.52
2023-01-23T09:08:38.823Z,-3.50
2023-01-23T09:11:09.598Z,-3.44
2023-01-23T09:13:39.316Z,-3.40
2023-01-23T09:16:09.327Z,-3.35
2023-01-23T09:18:37.796Z,-3.30
2023-01-23T09:21:10.414Z,-3.26
2023-01-23T09:23:38.624Z,-3.21
2023-01-23T09:26:08.974Z,-3.17
2023-01-23T09:28:40.117Z,-3.09
2023-01-23T09:31:09.205Z,-3.05
2023-01-23T09:33:37.499Z,-2.99
2023-01-23T09:36:06.355Z,-2.93
2023-01-23T09:38:34.530Z,-2.84
2023-01-23T09:41:10.529Z,-2.78
2023-01-23T09:43:49.161Z,-2.68
2023-01-23T09:46:21.619Z,-2.60
2023-01-23T09:48:55.531Z,-2.51
2023-01-23T09:51:28.271Z,-2.38
2023-01-23T09:53:59.295Z,-2.32
2023-01-23T09:56:34.963Z,-2.25
2023-01-23T09:59:14.584Z,-2.18
2023-01-23T10:01:42.761Z,-2.05
2023-01-23T10:04:13.871Z,-1.97
2023-01-23T10:07:07.464Z,-1.88
2023-01-23T10:09:49.120Z,-1.72
2023-01-23T10:12:33.959Z,-1.59
2023-01-23T10:15:17.426Z,-1.45
2023-01-23T10:18:16.418Z,-1.26
2023-01-23T10:20:51.987Z,-1.29
2023-01-23T10:23:42.326Z,-1.14
2023-01-23T10:26:15.891Z,-1.04
2023-01-23T10:28:45.165Z,-1.00
2023-01-23T10:31:34.613Z,-0.94
2023-01-23T10:34:12.365Z,-0.84
2023-01-23T10:36:54.500Z,-0.77
2023-01-23T10:39:28.199Z,-0.71
2023-01-23T10:42:02.074Z,-0.65
2023-01-23T10:44:31.237Z,-0.61
2023-01-23T10:47:04.579Z,-0.62
2023-01-23T10:49:35.558Z,-0.53
2023-01-23T10:52:03.541Z,-0.46
2023-01-23T10:54:33.452Z,-0.46
2023-01-23T10:57:22.747Z,-0.44
2023-01-23T10:59:56.943Z,-0.26
2023-01-23T11:02:31.153Z,-0.28
2023-01-23T11:05:00.300Z,-0.24
2023-01-23T11:07:30.359Z,-0.24
2023-01-23T11:10:00.596Z,-0.16
2023-01-23T11:12:37.615Z,-0.06
2023-01-23T11:15:24.259Z,0.00
2023-01-23T11:17:55.664Z,0.10
2023-01-23T11:20:30.240Z,0.22
2023-01-23T11:23:04.923Z,0.32
2023-01-23T11:25:35.237Z,0.44
2023-01-23T11:28:06.397Z,0.50
2023-01-23T11:30:42.665Z,0.58
2023-01-23T11:33:22.262Z,0.58
2023-01-23T11:36:03.844Z,0.72
2023-01-23T11:38:51.352Z,0.81
2023-01-23T11:41:24.776Z,0.89
2023-01-23T11:43:54.476Z,0.99
2023-01-23T11:46:39.876Z,1.02
2023-01-23T11:49:25.678Z,1.12
2023-01-23T11:52:07.406Z,1.15
2023-01-23T11:54:53.022Z,1.23
2023-01-23T11:57:32.942Z,1.27
2023-01-23T12:00:19.070Z,1.45
2023-01-23T12:03:24.455Z,1.47
2023-01-23T12:06:19.206Z,1.63
2023-01-23T12:08:54.644Z,1.78
2023-01-23T12:11:25.638Z,1.93
2023-01-23T12:14:05.876Z,1.96
2023-01-23T12:16:49.181Z,2.07
2023-01-23T12:19:27.488Z,2.27
2023-01-23T12:26:30.973Z,2.50
2023-01-23T12:29:18.826Z,2.67
2023-01-23T12:32:03.158Z,2.84
2023-01-23T12:34:54.337Z,2.88
2023-01-23T12:37:43.343Z,2.95
2023-01-23T12:40:15.132Z,3.06
2023-01-23T12:42:51.940Z,3.22
2023-01-23T12:45:35.957Z,3.26
2023-01-23T12:48:12.843Z,3.34
2023-01-23T12:50:48.230Z,3.39
2023-01-23T12:53:18.943Z,3.38
2023-01-23T12:55:58.953Z,3.45
2023-01-23T12:58:35.498Z,3.48
2023-01-23T13:01:14.139Z,3.46
2023-01-23T13:03:56.383Z,3.59
2023-01-23T13:06:47.215Z,3.70
2023-01-23T13:09:27.172Z,3.79
2023-01-23T13:12:12.717Z,3.81
2023-01-23T13:17:39.301Z,3.86
2023-01-23T13:20:43.536Z,3.87
2023-01-23T13:23:21.676Z,3.97
2023-01-23T13:25:49.908Z,3.82
2023-01-23T13:28:44.907Z,3.93
2023-01-23T13:31:38.177Z,4.09
2023-01-23T13:34:42.098Z,4.27
2023-01-23T13:37:51.308Z,4.35
2023-01-23T13:40:25.398Z,4.24
2023-01-23T13:42:53.761Z,4.28
2023-01-23T13:45:30.955Z,4.40
2023-01-23T14:21:52.240Z,4.29
2023-01-23T14:24:23.338Z,4.25
2023-01-23T14:26:52.161Z,4.26
2023-01-23T14:29:23.246Z,4.23
2023-01-23T14:31:52.204Z,4.23
2023-01-23T14:34:45.783Z,4.20
2023-01-23T14:37:15.914Z,4.19
2023-01-23T14:39:53.209Z,4.20
2023-01-23T14:42:26.605Z,4.18
2023-01-23T14:44:56.718Z,4.15
2023-01-23T14:47:32.896Z,4.10
2023-01-23T14:50:29.017Z,4.08
2023-01-23T14:53:04.252Z,4.10
2023-01-23T14:55:34.340Z,4.10
2023-01-23T14:58:06.116Z,3.98
2023-01-23T15:00:35.894Z,3.98
2023-01-23T15:03:05.619Z,3.93
2023-01-23T15:05:33.935Z,3.94
2023-01-23T15:08:07.444Z,3.94
2023-01-23T15:10:45.309Z,3.99
2023-01-23T15:13:22.183Z,3.94
2023-01-23T15:15:56.622Z,3.92
2023-01-23T15:18:27.635Z,3.92
2023-01-23T15:20:57.768Z,3.90
2023-01-23T15:23:31.605Z,3.90
2023-01-23T15:26:23.727Z,3.83
2023-01-23T15:28:53.727Z,3.84
2023-01-23T15:31:28.958Z,3.84
2023-01-23T15:34:11.473Z,3.81
2023-01-23T15:36:39.761Z,3.78
2023-01-23T15:39:20.118Z,3.76
2023-01-23T15:41:51.694Z,3.75
2023-01-23T15:44:21.853Z,3.74
2023-01-23T15:46:50.117Z,3.70
2023-01-23T15:49:25.413Z,3.69
2023-01-23T15:51:56.951Z,3.68
2023-01-23T15:54:32.552Z,3.65
2023-01-23T15:57:07.535Z,3.63
2023-01-23T15:59:37.643Z,3.62
2023-01-23T16:02:07.124Z,3.58
2023-01-23T16:04:37.613Z,3.58
2023-01-23T16:07:09.264Z,3.60
2023-01-23T16:09:41.065Z,3.58
2023-01-23T16:12:17.079Z,3.55
2023-01-23T16:14:45.141Z,3.53
2023-01-23T16:18:26.647Z,3.54
2023-01-23T16:20:54.700Z,3.50
2023-01-23T16:23:25.948Z,3.44
2023-01-23T16:25:56.125Z,3.43
2023-01-23T16:28:26.600Z,3.44
2023-01-23T16:30:54.743Z,3.43
2023-01-23T16:33:23.350Z,3.43
2023-01-23T16:35:52.449Z,3.41
2023-01-23T16:38:48.062Z,3.42
2023-01-23T16:41:17.680Z,3.41
2023-01-23T16:43:45.962Z,3.40
2023-01-23T16:46:14.516Z,3.37
2023-01-23T16:48:42.584Z,3.36
2023-01-23T16:51:16.009Z,3.36
2023-01-23T16:53:45.529Z,3.35
2023-01-23T16:56:22.563Z,3.35
2023-01-23T16:58:51.579Z,3.35
2023-01-23T17:01:22.891Z,3.32
2023-01-23T17:03:58.475Z,3.30
2023-01-23T17:06:27.054Z,3.32
2023-01-23T17:08:56.208Z,3.32
2023-01-23T17:11:30.378Z,3.31
2023-01-23T17:14:01.788Z,3.32
2023-01-23T17:16:30.625Z,3.29
2023-01-23T17:19:01.626Z,3.29
2023-01-23T17:21:33.657Z,3.26
2023-01-23T17:24:01.880Z,3.27
2023-01-23T17:26:31.368Z,3.22
2023-01-23T17:29:24.980Z,3.23
2023-01-23T17:31:53.324Z,3.20
2023-01-23T17:34:24.166Z,3.25
2023-01-23T17:36:55.256Z,3.24
2023-01-23T17:39:23.412Z,3.25
2023-01-23T17:41:52.931Z,3.22
2023-01-23T17:45:10.980Z,3.23
2023-01-23T17:47:39.000Z,3.23
2023-01-23T17:50:08.076Z,3.25
2023-01-23T17:52:36.064Z,3.25
2023-01-23T17:55:05.490Z,3.25
2023-01-23T17:57:35.003Z,3.24
2023-01-23T18:00:03.798Z,3.24
2023-01-23T18:02:39.068Z,3.23
2023-01-23T18:05:08.040Z,3.24
2023-01-23T18:12:30.657Z,3.23
2023-01-23T18:15:10.059Z,3.20
2023-01-23T18:17:46.108Z,3.23
2023-01-23T18:20:22.955Z,3.21
2023-01-23T18:22:51.504Z,3.23
2023-01-23T18:25:21.680Z,3.23
2023-01-23T18:27:54.349Z,3.23
2023-01-23T18:30:38.804Z,3.23
2023-01-23T18:33:23.653Z,3.23
2023-01-23T18:36:16.682Z,3.22
2023-01-23T18:39:21.261Z,3.23
2023-01-23T18:42:02.999Z,3.24
2023-01-23T18:44:33.615Z,3.25
2023-01-23T18:47:05.749Z,3.24
2023-01-23T18:49:34.531Z,3.25
2023-01-23T18:52:09.145Z,3.24
2023-01-23T18:54:43.274Z,3.27
2023-01-23T18:57:23.502Z,3.32
2023-01-23T19:00:01.491Z,3.28
2023-01-23T19:02:37.637Z,3.28
2023-01-23T19:05:24.399Z,3.27
2023-01-23T19:07:53.058Z,3.28
2023-01-23T19:10:23.817Z,3.29
2023-01-23T19:13:03.951Z,3.27
2023-01-23T19:15:38.176Z,3.28
2023-01-23T19:18:34.885Z,3.29
2023-01-23T19:21:16.343Z,3.28
2023-01-23T19:23:50.179Z,3.29
2023-01-23T19:26:19.536Z,3.26
2023-01-23T19:28:48.406Z,3.26
2023-01-23T19:31:24.518Z,3.27
2023-01-23T19:33:54.479Z,3.23
2023-01-23T19:36:24.043Z,3.25
2023-01-23T19:38:56.339Z,3.25
2023-01-23T19:41:26.474Z,3.26
2023-01-23T19:43:56.288Z,3.26
2023-01-23T19:46:27.787Z,3.27
2023-01-23T19:48:57.806Z,3.25
2023-01-23T19:51:27.420Z,3.27
2023-01-23T19:53:56.092Z,3.26
2023-01-23T19:56:24.213Z,3.27
2023-01-23T19:58:52.386Z,3.29
2023-01-23T20:01:25.489Z,3.26
2023-01-23T20:03:53.849Z,3.28
2023-01-23T20:06:23.665Z,3.29
2023-01-23T20:08:51.645Z,3.30
2023-01-23T20:11:21.750Z,3.29
2023-01-23T20:13:49.947Z,3.30
2023-01-23T20:16:20.184Z,3.28
2023-01-23T20:18:49.528Z,3.29
2023-01-23T20:21:19.534Z,3.28
2023-01-23T20:23:49.963Z,3.29
2023-01-23T20:26:19.938Z,3.31
2023-01-23T20:29:38.774Z,3.30
2023-01-23T20:32:07.207Z,3.30
2023-01-23T20:34:35.260Z,3.30
2023-01-23T20:37:03.380Z,3.28
2023-01-23T20:39:33.086Z,3.29
2023-01-23T20:42:01.458Z,3.29
2023-01-23T20:44:29.490Z,3.29
2023-01-23T20:46:57.758Z,3.28
2023-01-23T20:49:25.844Z,3.28
2023-01-23T20:51:53.823Z,3.27
2023-01-23T20:54:20.883Z,3.29
2023-01-23T20:56:50.345Z,3.31
2023-01-23T20:59:21.472Z,3.32
2023-01-23T21:02:08.617Z,3.31
2023-01-23T21:04:38.471Z,3.31
2023-01-23T21:07:06.801Z,3.28
2023-01-23T21:09:35.055Z,3.34
2023-01-23T21:12:07.382Z,3.35
2023-01-23T21:14:35.780Z,3.35
2023-01-23T21:17:05.347Z,3.34
2023-01-23T21:19:34.045Z,3.35
2023-01-23T21:22:02.256Z,3.35
2023-01-23T21:24:34.312Z,3.32
2023-01-23T21:27:03.007Z,3.33
2023-01-23T21:29:32.615Z,3.35
2023-01-23T21:32:00.808Z,3.34
2023-01-23T21:34:28.887Z,3.36
2023-01-23T21:36:57.006Z,3.36
2023-01-23T21:39:27.129Z,3.35
2023-01-23T21:41:55.323Z,3.35
2023-01-23T21:44:23.410Z,3.28
2023-01-23T21:46:52.952Z,3.31
2023-01-23T21:49:21.104Z,3.33
2023-01-23T21:51:49.133Z,3.31
2023-01-23T21:54:17.376Z,3.30
2023-01-23T21:56:45.372Z,3.32
2023-01-23T21:59:13.393Z,3.35
2023-01-23T22:01:42.752Z,3.32
2023-01-23T22:04:14.186Z,3.32
2023-01-23T22:06:43.116Z,3.31
2023-01-23T22:09:14.948Z,3.32
2023-01-23T22:11:43.264Z,3.31
2023-01-23T22:14:11.548Z,3.30
2023-01-23T22:16:48.509Z,3.31
2023-01-23T22:19:23.266Z,3.30
2023-01-23T22:21:53.001Z,3.28
2023-01-23T22:24:21.215Z,3.29
2023-01-23T22:26:49.562Z,3.29
2023-01-23T22:29:17.695Z,3.28
2023-01-23T22:31:45.826Z,3.28
2023-01-23T22:34:13.873Z,3.30
2023-01-23T22:36:43.415Z,3.29
2023-01-23T22:39:16.050Z,3.29
2023-01-23T22:41:45.587Z,3.29
2023-01-23T22:44:14.525Z,3.29
2023-01-23T22:46:42.702Z,3.31
2023-01-23T22:49:11.408Z,3.29
2023-01-23T22:51:39.440Z,3.27
2023-01-23T22:54:12.241Z,3.27
2023-01-23T22:56:40.346Z,3.29
2023-01-23T22:59:08.465Z,3.31
2023-01-23T23:01:36.780Z,3.31
2023-01-23T23:04:05.057Z,3.29
2023-01-23T23:06:33.409Z,3.30
2023-01-23T23:09:28.401Z,3.30
2023-01-23T23:11:57.345Z,3.27
2023-01-23T23:14:25.519Z,3.30
2023-01-23T23:16:53.684Z,3.31
2023-01-23T23:19:24.636Z,3.33
2023-01-23T23:22:19.740Z,3.30
2023-01-23T23:24:49.268Z,3.32
2023-01-23T23:27:17.454Z,3.37
2023-01-23T23:29:46.812Z,3.35
2023-01-23T23:32:15.060Z,3.33
2023-01-23T23:34:44.591Z,3.35
2023-01-23T23:37:12.769Z,3.36
2023-01-23T23:39:40.968Z,3.38
2023-01-23T23:42:10.493Z,3.37
2023-01-23T23:44:38.635Z,3.37
2023-01-23T23:47:31.695Z,3.38
2023-01-23T23:49:59.952Z,3.39
2023-01-23T23:52:28.120Z,3.40
2023-01-23T23:54:56.207Z,3.39
2023-01-23T23:57:25.705Z,3.39
2023-01-23T23:59:53.891Z,3.39
